Time;durP1;ratioP1;P1;durP2;ratioP2;P2;SDS_P1;SDS_P2;PMS_P1;PMS_P2;Temp;Humidity;BMP_temperature;BMP_pressure;BME280_temperature;BME280_humidity;BME280_pressure;Samples;Min_cycle;Max_cycle;Signal;HPM_P1;HPM_P2
2023/06/12 00:01:16;;;;;;;13.70;4.82;;;20.20;99.90;;;;;;5016615;28;20410;-73
2023/06/12 00:03:47;;;;;;;12.50;4.90;;;20.20;99.90;;;;;;5017309;28;20413;-74
2023/06/12 00:06:16;;;;;;;12.10;4.60;;;20.10;99.90;;;;;;5013938;28;20940;-74
2023/06/12 00:08:43;;;;;;;11.37;4.43;;;20.10;99.90;;;;;;5019961;28;20506;-74
2023/06/12 00:11:12;;;;;;;10.38;4.47;;;20.00;99.90;;;;;;5031264;28;20414;-74
2023/06/12 00:13:45;;;;;;;9.13;5.20;;;20.00;99.90;;;;;;5017929;28;20423;-74
2023/06/12 00:16:11;;;;;;;13.33;4.90;;;20.00;99.90;;;;;;5006721;28;20508;-74
2023/06/12 00:18:39;;;;;;;11.10;4.97;;;20.00;99.90;;;;;;5040515;28;20900;-74
2023/06/12 00:21:10;;;;;;;13.13;5.07;;;20.10;99.90;;;;;;5019374;28;20424;-73
2023/06/12 00:23:41;;;;;;;12.27;5.00;;;20.10;99.90;;;;;;5001535;28;20508;-75
2023/06/12 00:26:11;;;;;;;14.50;5.03;;;20.00;99.90;;;;;;5043267;28;21043;-74
2023/06/12 00:28:37;;;;;;;9.90;5.03;;;20.00;99.90;;;;;;5048777;28;20438;-74
2023/06/12 00:31:03;;;;;;;11.73;4.85;;;20.00;99.90;;;;;;5031591;28;20829;-74
2023/06/12 00:33:30;;;;;;;12.23;5.23;;;19.90;99.90;;;;;;5019546;28;20419;-74
2023/06/12 00:35:56;;;;;;;12.02;5.15;;;20.00;99.90;;;;;;5033505;28;20785;-74
2023/06/12 00:38:23;;;;;;;13.05;5.40;;;20.00;99.90;;;;;;5013653;28;20404;-74
2023/06/12 00:40:50;;;;;;;11.20;4.90;;;20.00;99.90;;;;;;5018670;28;20407;-74
2023/06/12 00:43:16;;;;;;;12.88;5.00;;;20.00;99.90;;;;;;5046672;28;20417;-74
2023/06/12 00:45:43;;;;;;;11.40;4.55;;;20.00;99.90;;;;;;5040765;28;20820;-75
2023/06/12 00:48:10;;;;;;;10.17;4.80;;;19.90;99.90;;;;;;5018868;28;20424;-75
2023/06/12 00:50:39;;;;;;;10.77;4.60;;;19.90;99.90;;;;;;5028241;28;20835;-75
2023/06/12 00:53:06;;;;;;;10.20;4.70;;;19.80;99.90;;;;;;5011678;28;20527;-75
2023/06/12 00:55:32;;;;;;;10.13;4.90;;;19.80;99.90;;;;;;5010711;28;20545;-75
2023/06/12 00:58:02;;;;;;;10.20;4.85;;;19.80;99.90;;;;;;5016597;28;20426;-75
2023/06/12 01:00:29;;;;;;;12.10;5.20;;;19.80;99.90;;;;;;5020790;28;20449;-76
2023/06/12 01:03:06;;;;;;;11.00;4.88;;;19.90;99.90;;;;;;5008948;28;20420;-75
2023/06/12 01:05:37;;;;;;;13.48;5.53;;;19.80;99.90;;;;;;5021409;28;20430;-75
2023/06/12 01:08:37;;;;;;;11.85;5.47;;;19.90;99.90;;;;;;5024976;28;20411;-75
2023/06/12 01:11:09;;;;;;;12.40;5.10;;;19.80;99.90;;;;;;5033856;28;20442;-75
2023/06/12 01:13:36;;;;;;;12.77;5.32;;;19.80;99.90;;;;;;5006429;28;20987;-75
2023/06/12 01:16:03;;;;;;;11.80;5.03;;;19.80;99.90;;;;;;5011473;28;20495;-74
2023/06/12 01:18:32;;;;;;;11.68;5.32;;;19.80;99.90;;;;;;5044917;28;20413;-74
2023/06/12 01:21:01;;;;;;;10.90;5.00;;;19.80;99.90;;;;;;5015233;28;20430;-74
2023/06/12 01:24:08;;;;;;;10.27;5.03;;;19.90;99.90;;;;;;5014338;28;20413;-75
2023/06/12 01:26:55;;;;;;;13.20;5.50;;;19.80;99.90;;;;;;5012951;28;20429;-74
2023/06/12 01:30:07;;;;;;;11.17;5.07;;;19.80;99.90;;;;;;5049583;28;20418;-74
2023/06/12 01:32:37;;;;;;;11.07;5.28;;;19.90;99.90;;;;;;5029720;28;20497;-75
2023/06/12 01:35:23;;;;;;;12.77;5.05;;;19.80;99.90;;;;;;5004727;28;20556;-75
2023/06/12 01:38:07;;;;;;;12.68;5.30;;;19.80;99.90;;;;;;5035910;28;20425;-75
2023/06/12 01:40:38;;;;;;;12.52;5.50;;;19.90;99.90;;;;;;5017837;28;20958;-75
2023/06/12 01:43:04;;;;;;;13.70;5.20;;;19.90;99.90;;;;;;5048776;28;20531;-75
2023/06/12 01:45:33;;;;;;;14.43;5.43;;;20.00;99.90;;;;;;5015046;28;20457;-75
2023/06/12 01:47:59;;;;;;;11.32;5.15;;;19.90;99.90;;;;;;5010642;28;20424;-74
2023/06/12 01:50:26;;;;;;;12.48;5.25;;;19.90;99.90;;;;;;5039202;28;20498;-74
2023/06/12 01:52:52;;;;;;;8.95;5.10;;;19.90;99.90;;;;;;5018509;28;20426;-76
2023/06/12 01:55:19;;;;;;;11.70;5.40;;;20.00;99.90;;;;;;5019713;28;20425;-75
2023/06/12 01:57:48;;;;;;;13.27;5.55;;;19.90;99.90;;;;;;5042387;28;20443;-75
2023/06/12 02:00:17;;;;;;;10.80;5.13;;;19.80;99.90;;;;;;5017287;28;20891;-74
2023/06/12 02:02:44;;;;;;;11.30;5.20;;;19.70;99.90;;;;;;5014037;28;20482;-75
2023/06/12 02:05:10;;;;;;;12.90;5.05;;;19.60;99.90;;;;;;5029664;28;20425;-75
2023/06/12 02:07:37;;;;;;;12.13;5.35;;;19.70;99.90;;;;;;5009603;28;20442;-75
2023/06/12 02:10:04;;;;;;;10.67;5.00;;;19.70;99.90;;;;;;5011083;28;20406;-72
2023/06/12 02:12:32;;;;;;;14.90;5.45;;;19.70;99.90;;;;;;5010748;28;20441;-72
2023/06/12 02:14:59;;;;;;;13.52;5.28;;;19.50;99.90;;;;;;5032660;28;20465;-72
2023/06/12 02:17:26;;;;;;;10.02;4.88;;;19.40;99.90;;;;;;5028608;28;20424;-72
2023/06/12 02:19:52;;;;;;;11.77;5.10;;;19.50;99.90;;;;;;5008506;28;20435;-72
2023/06/12 02:22:18;;;;;;;11.95;5.22;;;19.50;99.90;;;;;;5014955;28;20476;-73
2023/06/12 02:24:46;;;;;;;11.93;5.73;;;19.40;99.90;;;;;;5016376;28;20422;-72
2023/06/12 02:27:12;;;;;;;10.40;4.80;;;19.50;99.90;;;;;;5029303;28;20422;-73
2023/06/12 02:29:38;;;;;;;11.38;5.38;;;19.50;99.90;;;;;;5015265;28;20414;-72
2023/06/12 02:32:05;;;;;;;10.50;5.07;;;19.50;99.90;;;;;;5047369;28;20416;-72
2023/06/12 02:34:31;;;;;;;9.55;4.95;;;19.50;99.90;;;;;;5005135;28;20479;-72
2023/06/12 02:36:58;;;;;;;10.68;4.80;;;19.50;99.90;;;;;;5042627;28;20408;-74
2023/06/12 02:39:24;;;;;;;14.38;5.38;;;19.50;99.90;;;;;;5014767;28;20404;-74
2023/06/12 02:41:50;;;;;;;12.05;5.10;;;19.50;99.90;;;;;;5022539;28;20408;-74
2023/06/12 02:44:17;;;;;;;12.68;5.22;;;19.30;99.90;;;;;;5010249;28;20510;-74
2023/06/12 02:47:09;;;;;;;9.55;5.07;;;19.30;99.90;;;;;;5012551;28;21071;-74
2023/06/12 02:49:37;;;;;;;12.52;5.30;;;19.30;99.90;;;;;;5042260;28;20413;-74
2023/06/12 02:52:04;;;;;;;8.93;5.30;;;19.40;99.90;;;;;;5002181;28;20492;-74
2023/06/12 02:54:32;;;;;;;14.00;5.50;;;19.40;99.90;;;;;;5016568;28;20805;-74
2023/06/12 02:56:58;;;;;;;13.48;5.60;;;19.30;99.90;;;;;;5027854;28;20793;-74
2023/06/12 02:59:24;;;;;;;10.57;5.40;;;19.30;99.90;;;;;;5012243;28;20772;-74
2023/06/12 03:01:54;;;;;;;10.77;5.70;;;19.40;99.90;;;;;;5016672;28;20423;-74
2023/06/12 03:04:23;;;;;;;12.87;5.50;;;19.40;99.90;;;;;;5012324;28;20407;-74
2023/06/12 03:06:53;;;;;;;13.40;5.95;;;19.40;99.90;;;;;;5050957;28;20449;-75
2023/06/12 03:09:23;;;;;;;11.88;5.70;;;19.40;99.90;;;;;;5041469;28;20801;-75
2023/06/12 03:11:52;;;;;;;10.83;5.60;;;19.30;99.90;;;;;;5026307;28;20932;-75
2023/06/12 03:14:24;;;;;;;11.87;6.10;;;19.30;99.90;;;;;;5046074;28;20574;-75
2023/06/12 03:16:50;;;;;;;11.45;6.13;;;19.30;99.90;;;;;;5012175;28;20414;-75
2023/06/12 03:19:18;;;;;;;14.23;6.68;;;19.30;99.90;;;;;;5041538;28;20412;-75
2023/06/12 03:21:44;;;;;;;12.90;6.10;;;19.30;99.90;;;;;;5015488;28;20424;-75
2023/06/12 03:24:13;;;;;;;11.90;5.95;;;19.40;99.90;;;;;;5020188;28;20877;-75
2023/06/12 03:26:41;;;;;;;11.90;6.00;;;19.50;99.90;;;;;;5010964;28;20425;-75
2023/06/12 03:29:07;;;;;;;17.20;6.40;;;19.50;99.90;;;;;;5017877;28;20458;-75
2023/06/12 03:31:34;;;;;;;12.52;6.15;;;19.60;99.90;;;;;;5016783;28;20411;-75
2023/06/12 03:34:00;;;;;;;13.88;6.55;;;19.70;99.90;;;;;;5012308;28;20425;-75
2023/06/12 03:36:28;;;;;;;10.48;6.05;;;19.80;99.90;;;;;;5017975;28;20420;-74
2023/06/12 03:38:55;;;;;;;10.45;5.88;;;19.90;99.90;;;;;;5047473;28;20401;-74
2023/06/12 03:41:22;;;;;;;11.77;6.15;;;19.90;99.90;;;;;;5020844;28;20510;-74
2023/06/12 03:43:49;;;;;;;12.63;6.30;;;19.90;99.90;;;;;;5024234;28;20462;-74
2023/06/12 03:46:16;;;;;;;13.37;6.50;;;19.90;99.90;;;;;;5029756;28;20444;-74
2023/06/12 03:48:42;;;;;;;15.00;6.35;;;19.90;99.90;;;;;;5026467;28;20998;-75
2023/06/12 03:51:09;;;;;;;11.00;5.95;;;19.90;99.90;;;;;;5045132;28;20481;-75
2023/06/12 03:53:35;;;;;;;16.58;7.05;;;19.90;99.90;;;;;;5035828;28;20416;-74
2023/06/12 03:56:01;;;;;;;11.43;6.00;;;19.90;99.90;;;;;;5039065;28;20409;-75
2023/06/12 03:58:28;;;;;;;11.82;6.50;;;19.90;99.90;;;;;;5008638;28;20749;-75
2023/06/12 04:00:54;;;;;;;13.88;6.10;;;19.90;99.90;;;;;;5044014;28;20417;-75
2023/06/12 04:03:21;;;;;;;14.55;6.30;;;19.90;99.90;;;;;;5021494;28;20418;-75
2023/06/12 04:05:51;;;;;;;10.85;6.28;;;19.90;99.90;;;;;;5008281;28;20411;-75
2023/06/12 04:08:17;;;;;;;12.98;6.00;;;20.00;99.90;;;;;;5043576;28;20444;-75
2023/06/12 04:10:44;;;;;;;16.23;6.63;;;20.10;99.90;;;;;;5017188;28;20452;-75
2023/06/12 04:13:14;;;;;;;14.02;6.45;;;20.10;99.90;;;;;;5007866;28;20428;-75
2023/06/12 04:15:40;;;;;;;15.07;6.50;;;20.20;99.90;;;;;;5045438;28;20941;-75
2023/06/12 04:18:09;;;;;;;15.77;6.43;;;20.20;99.90;;;;;;4991602;28;20770;-74
2023/06/12 04:20:38;;;;;;;10.48;6.00;;;20.20;99.90;;;;;;5008886;28;21530;-74
2023/06/12 04:23:04;;;;;;;13.02;6.22;;;20.30;99.90;;;;;;5012936;28;20433;-74
2023/06/12 04:25:35;;;;;;;14.70;6.85;;;20.40;99.90;;;;;;5039449;28;20422;-74
2023/06/12 04:28:02;;;;;;;13.32;6.22;;;20.40;99.90;;;;;;5039684;28;20414;-74
2023/06/12 04:30:31;;;;;;;14.27;6.33;;;20.50;99.90;;;;;;5039793;28;20442;-74
2023/06/12 04:32:57;;;;;;;12.85;6.25;;;20.50;99.90;;;;;;5040885;28;20438;-75
2023/06/12 04:35:23;;;;;;;13.73;6.18;;;20.60;99.90;;;;;;5025299;28;20498;-76
2023/06/12 04:37:52;;;;;;;12.77;6.10;;;20.60;99.90;;;;;;4999310;28;20404;-73
2023/06/12 04:40:20;;;;;;;11.90;6.03;;;20.70;99.90;;;;;;5006589;28;20411;-74
2023/06/12 04:42:46;;;;;;;13.05;5.90;;;20.70;99.90;;;;;;5009442;28;20843;-75
2023/06/12 04:45:13;;;;;;;13.18;6.05;;;20.70;99.90;;;;;;5011332;28;21023;-75
2023/06/12 04:47:42;;;;;;;12.88;6.60;;;20.80;99.90;;;;;;5015295;28;20813;-76
2023/06/12 04:50:10;;;;;;;15.15;6.18;;;20.80;99.90;;;;;;5008305;28;20433;-76
2023/06/12 04:52:39;;;;;;;14.37;6.27;;;20.90;99.90;;;;;;5010100;28;21256;-76
2023/06/12 04:55:08;;;;;;;11.85;6.18;;;20.90;99.90;;;;;;5013488;28;20504;-75
2023/06/12 04:57:39;;;;;;;12.93;5.93;;;20.90;99.90;;;;;;5007084;28;20565;-76
2023/06/12 05:00:09;;;;;;;12.13;5.88;;;20.90;99.90;;;;;;5012041;28;21027;-76
2023/06/12 05:02:35;;;;;;;12.55;5.78;;;20.90;99.90;;;;;;5043557;28;20459;-76
2023/06/12 05:05:02;;;;;;;14.63;6.18;;;21.00;99.90;;;;;;5008936;28;20420;-75
2023/06/12 05:07:28;;;;;;;16.77;6.25;;;21.00;99.90;;;;;;5008401;28;20441;-76
2023/06/12 05:09:54;;;;;;;15.47;6.33;;;21.00;99.90;;;;;;5010873;28;20513;-75
2023/06/12 05:12:20;;;;;;;12.27;6.00;;;21.10;99.90;;;;;;5010247;28;20522;-75
2023/06/12 05:14:46;;;;;;;11.48;5.65;;;21.10;99.90;;;;;;5007007;28;20430;-76
2023/06/12 05:17:13;;;;;;;13.32;5.90;;;21.20;99.90;;;;;;5011768;28;20926;-76
2023/06/12 05:19:39;;;;;;;14.13;5.80;;;21.20;99.90;;;;;;5008980;28;20504;-75
2023/06/12 05:22:06;;;;;;;9.88;5.38;;;21.30;99.90;;;;;;5005128;28;20412;-75
2023/06/12 05:24:32;;;;;;;13.32;5.80;;;21.30;99.90;;;;;;5020931;28;20890;-75
2023/06/12 05:27:01;;;;;;;12.15;5.60;;;21.30;99.90;;;;;;5003935;28;20451;-75
2023/06/12 05:29:27;;;;;;;10.45;5.85;;;21.30;99.90;;;;;;5036846;28;20420;-76
2023/06/12 05:31:54;;;;;;;14.02;5.85;;;21.40;99.90;;;;;;5009036;28;20777;-76
2023/06/12 05:34:20;;;;;;;12.90;5.90;;;21.40;99.90;;;;;;5028384;28;20419;-76
2023/06/12 05:36:46;;;;;;;12.48;6.00;;;21.50;99.90;;;;;;5009367;28;20427;-76
2023/06/12 05:39:12;;;;;;;11.57;5.78;;;21.50;99.90;;;;;;5010541;28;20461;-76
2023/06/12 05:41:39;;;;;;;13.25;6.10;;;21.50;99.90;;;;;;5005736;28;20429;-76
2023/06/12 05:44:06;;;;;;;13.48;6.03;;;21.50;99.90;;;;;;5022273;28;20456;-73
2023/06/12 05:46:34;;;;;;;12.98;5.75;;;21.60;99.90;;;;;;5009385;28;20410;-73
2023/06/12 05:49:00;;;;;;;11.07;5.60;;;21.70;99.90;;;;;;5041129;28;20442;-74
2023/06/12 05:51:27;;;;;;;12.30;5.30;;;21.70;99.90;;;;;;5022416;28;20411;-75
2023/06/12 05:53:54;;;;;;;12.35;5.55;;;21.80;99.90;;;;;;5006308;28;20458;-75
2023/06/12 05:56:22;;;;;;;9.85;5.45;;;21.80;99.90;;;;;;5008111;28;20518;-75
2023/06/12 05:58:48;;;;;;;12.60;5.97;;;21.90;99.90;;;;;;5057272;28;20399;-73
2023/06/12 06:01:17;;;;;;;12.65;5.85;;;22.00;99.90;;;;;;5006216;28;20895;-73
2023/06/12 06:03:45;;;;;;;10.57;5.30;;;22.00;99.90;;;;;;5008933;28;20445;-76
2023/06/12 06:06:15;;;;;;;11.18;5.50;;;22.10;99.90;;;;;;5008479;28;20837;-76
2023/06/12 06:08:42;;;;;;;12.23;5.43;;;22.10;99.90;;;;;;5011585;28;20429;-75
2023/06/12 06:11:09;;;;;;;12.40;5.20;;;22.20;99.90;;;;;;5046751;28;20415;-75
2023/06/12 06:13:35;;;;;;;11.98;5.38;;;22.20;99.90;;;;;;5009763;28;20431;-75
2023/06/12 06:16:02;;;;;;;11.25;5.10;;;22.30;99.90;;;;;;5008531;28;20421;-75
2023/06/12 06:18:31;;;;;;;10.55;5.30;;;22.30;99.90;;;;;;5043976;28;21182;-73
2023/06/12 06:20:58;;;;;;;12.43;5.38;;;22.40;99.90;;;;;;5053979;28;20425;-74
2023/06/12 06:23:25;;;;;;;11.82;5.22;;;22.40;99.90;;;;;;5012352;28;20477;-74
2023/06/12 06:25:51;;;;;;;11.32;5.32;;;22.50;99.90;;;;;;5023857;28;20427;-75
2023/06/12 06:28:18;;;;;;;11.85;5.40;;;22.50;99.90;;;;;;5010059;28;21053;-75
2023/06/12 06:30:44;;;;;;;10.88;5.38;;;22.60;99.90;;;;;;5004319;28;20589;-75
2023/06/12 06:33:10;;;;;;;9.80;4.72;;;22.60;99.90;;;;;;5029315;28;20431;-75
2023/06/12 06:35:37;;;;;;;12.50;5.07;;;22.70;99.90;;;;;;5014449;28;20742;-76
2023/06/12 06:38:03;;;;;;;11.15;4.95;;;22.80;99.90;;;;;;5041070;28;20520;-76
2023/06/12 06:40:29;;;;;;;13.30;5.23;;;22.80;99.90;;;;;;5029046;28;20408;-75
2023/06/12 06:42:56;;;;;;;11.07;4.87;;;22.80;99.90;;;;;;5012682;28;20499;-76
2023/06/12 06:45:22;;;;;;;13.25;4.90;;;22.90;99.90;;;;;;5039750;28;20508;-76
2023/06/12 06:47:48;;;;;;;10.57;4.60;;;22.90;99.90;;;;;;5040587;28;20774;-75
2023/06/12 06:50:14;;;;;;;8.32;4.63;;;23.00;99.90;;;;;;5045509;28;20423;-75
2023/06/12 06:52:41;;;;;;;10.00;4.80;;;23.10;99.90;;;;;;5048527;28;20418;-75
2023/06/12 06:55:08;;;;;;;8.88;4.82;;;23.20;99.90;;;;;;5015751;28;20439;-74
2023/06/12 06:57:37;;;;;;;9.27;4.60;;;23.30;99.90;;;;;;5012313;28;20497;-74
2023/06/12 07:00:05;;;;;;;10.75;4.57;;;23.30;99.90;;;;;;5045315;28;20535;-74
2023/06/12 07:02:32;;;;;;;9.95;4.55;;;23.30;99.90;;;;;;5011291;28;20443;-74
2023/06/12 07:04:59;;;;;;;12.10;4.97;;;23.40;99.90;;;;;;5038578;28;20509;-74
2023/06/12 07:07:25;;;;;;;10.77;4.85;;;23.50;99.90;;;;;;5038353;28;21066;-73
2023/06/12 07:09:51;;;;;;;11.02;4.78;;;23.50;99.90;;;;;;5007351;28;20417;-73
2023/06/12 07:12:19;;;;;;;10.65;4.85;;;23.50;99.90;;;;;;5011166;28;22159;-73
2023/06/12 07:14:46;;;;;;;9.80;4.80;;;23.60;99.90;;;;;;5007816;28;20413;-73
2023/06/12 07:17:12;;;;;;;8.47;4.70;;;23.60;99.90;;;;;;5040386;28;20772;-73
2023/06/12 07:19:40;;;;;;;10.20;4.93;;;23.70;99.90;;;;;;5027015;28;20418;-73
2023/06/12 07:22:06;;;;;;;9.77;4.80;;;23.80;99.90;;;;;;5011199;28;20926;-73
2023/06/12 07:24:33;;;;;;;11.38;5.10;;;23.90;99.90;;;;;;5016153;28;20415;-73
2023/06/12 07:26:59;;;;;;;11.05;5.00;;;24.00;99.90;;;;;;4998055;28;20459;-73
2023/06/12 07:29:27;;;;;;;11.25;4.65;;;24.00;99.90;;;;;;5042645;28;20426;-73
2023/06/12 07:31:53;;;;;;;9.27;4.93;;;24.10;99.90;;;;;;5027638;28;20403;-73
2023/06/12 07:34:19;;;;;;;10.63;5.05;;;24.20;99.90;;;;;;5022333;28;20421;-73
2023/06/12 07:36:46;;;;;;;11.73;5.10;;;24.30;99.90;;;;;;5041715;28;21000;-73
2023/06/12 07:39:12;;;;;;;13.25;4.95;;;24.40;99.90;;;;;;5012401;28;20422;-73
2023/06/12 07:41:42;;;;;;;10.57;5.05;;;24.40;99.90;;;;;;5044259;28;20407;-73
2023/06/12 07:44:12;;;;;;;9.82;4.68;;;24.40;99.90;;;;;;5057402;28;20499;-73
2023/06/12 07:46:41;;;;;;;9.55;4.80;;;24.50;99.90;;;;;;5042452;28;20470;-73
2023/06/12 07:49:08;;;;;;;10.70;5.20;;;24.50;99.90;;;;;;5015547;28;20414;-73
2023/06/12 07:51:34;;;;;;;8.93;4.68;;;24.70;99.90;;;;;;5009454;28;20454;-73
2023/06/12 07:54:00;;;;;;;10.02;4.68;;;24.80;99.90;;;;;;5040634;28;20539;-73
2023/06/12 07:56:27;;;;;;;9.35;4.60;;;24.90;99.90;;;;;;5009833;28;20502;-73
2023/06/12 07:58:53;;;;;;;9.05;4.85;;;25.00;99.90;;;;;;5000317;28;20813;-73
2023/06/12 08:01:22;;;;;;;11.13;4.95;;;25.10;99.90;;;;;;5006244;28;20468;-73
2023/06/12 08:03:49;;;;;;;9.13;4.50;;;25.20;99.90;;;;;;5009561;28;22212;-73
2023/06/12 08:06:15;;;;;;;13.18;4.60;;;25.20;99.90;;;;;;5032050;28;20776;-73
2023/06/12 08:08:43;;;;;;;9.15;4.55;;;25.30;99.90;;;;;;5012658;28;21120;-73
2023/06/12 08:11:10;;;;;;;11.77;4.50;;;25.40;99.90;;;;;;5015050;28;20494;-73
2023/06/12 08:13:37;;;;;;;8.60;4.30;;;25.40;99.90;;;;;;5031743;28;20475;-73
2023/06/12 08:16:04;;;;;;;10.40;4.47;;;25.50;99.90;;;;;;5020033;28;20921;-73
2023/06/12 08:18:30;;;;;;;12.20;4.93;;;25.60;99.90;;;;;;5007967;28;20515;-73
2023/06/12 08:20:57;;;;;;;9.17;4.37;;;25.70;99.90;;;;;;5014109;28;20421;-73
2023/06/12 08:23:24;;;;;;;12.68;4.88;;;25.80;99.90;;;;;;5010421;28;20419;-73
2023/06/12 08:25:50;;;;;;;10.83;4.50;;;26.00;99.90;;;;;;5010719;28;21078;-73
2023/06/12 08:28:16;;;;;;;8.05;4.30;;;26.00;99.90;;;;;;5004367;28;20429;-73
2023/06/12 08:30:42;;;;;;;8.87;4.70;;;26.00;99.90;;;;;;5009961;28;20458;-73
2023/06/12 08:33:10;;;;;;;10.87;4.50;;;26.20;99.90;;;;;;5021195;28;20420;-73
2023/06/12 08:35:37;;;;;;;10.27;4.82;;;26.40;99.90;;;;;;5030029;28;20415;-73
2023/06/12 08:38:03;;;;;;;11.27;4.60;;;26.50;99.90;;;;;;5009090;28;20409;-72
2023/06/12 08:40:30;;;;;;;10.30;4.40;;;26.50;99.90;;;;;;5042347;28;20519;-73
2023/06/12 08:42:56;;;;;;;10.88;4.82;;;26.60;99.90;;;;;;5008569;28;20416;-73
2023/06/12 08:45:28;;;;;;;10.98;4.43;;;26.60;99.90;;;;;;5013670;28;20416;-73
2023/06/12 08:47:56;;;;;;;11.82;4.40;;;26.60;99.90;;;;;;5026217;28;20422;-73
2023/06/12 08:50:24;;;;;;;13.30;5.05;;;26.70;99.90;;;;;;5009588;28;20411;-73
2023/06/12 08:52:56;;;;;;;11.68;4.90;;;26.80;99.90;;;;;;5012307;28;20462;-72
2023/06/12 08:55:26;;;;;;;8.88;4.38;;;26.80;99.90;;;;;;5007400;28;20406;-73
2023/06/12 08:57:53;;;;;;;11.65;4.50;;;27.00;99.90;;;;;;5007104;28;20906;-73
2023/06/12 09:00:21;;;;;;;13.30;4.40;;;27.00;99.90;;;;;;5011428;28;20405;-73
2023/06/12 09:02:53;;;;;;;10.07;4.30;;;27.10;99.90;;;;;;5010028;28;20415;-73
2023/06/12 09:05:33;;;;;;;10.23;4.70;;;27.30;99.90;;;;;;5004664;28;20918;-73
2023/06/12 09:08:04;;;;;;;9.87;4.37;;;27.30;99.90;;;;;;5009205;28;20556;-73
2023/06/12 09:10:35;;;;;;;10.48;4.32;;;27.50;99.90;;;;;;5012325;28;20748;-73
2023/06/12 09:13:10;;;;;;;11.95;4.53;;;27.70;99.90;;;;;;5006781;28;21119;-73
2023/06/12 09:15:38;;;;;;;9.97;4.57;;;27.80;99.90;;;;;;5009366;28;20435;-73
2023/06/12 09:18:11;;;;;;;10.68;4.53;;;27.90;99.90;;;;;;5001677;28;20463;-73
2023/06/12 09:20:38;;;;;;;12.25;4.28;;;27.80;99.90;;;;;;4996418;28;20915;-73
2023/06/12 09:23:05;;;;;;;11.27;4.82;;;27.70;99.90;;;;;;4991599;28;20438;-73
2023/06/12 09:25:37;;;;;;;9.93;4.53;;;27.70;99.90;;;;;;5006538;28;20412;-73
2023/06/12 09:28:04;;;;;;;11.98;4.28;;;27.70;99.90;;;;;;5042812;28;20442;-72
2023/06/12 09:30:42;;;;;;;8.95;4.63;;;27.80;99.90;;;;;;5011756;28;20423;-73
2023/06/12 09:33:10;;;;;;;10.23;4.27;;;28.10;99.90;;;;;;5004581;28;20437;-73
2023/06/12 09:35:53;;;;;;;13.18;4.57;;;28.20;99.90;;;;;;5028853;28;20419;-73
2023/06/12 09:38:31;;;;;;;9.07;4.45;;;28.00;99.90;;;;;;5021703;28;20412;-73
2023/06/12 09:41:00;;;;;;;8.07;4.00;;;28.10;99.90;;;;;;5007729;28;20422;-72
2023/06/12 09:43:27;;;;;;;10.65;4.40;;;28.30;99.90;;;;;;5013465;28;20935;-73
2023/06/12 09:45:54;;;;;;;7.20;4.00;;;28.40;99.90;;;;;;5006227;28;22815;-73
2023/06/12 09:48:20;;;;;;;9.63;4.20;;;28.70;99.90;;;;;;5039044;28;21082;-73
2023/06/12 09:50:48;;;;;;;13.48;4.70;;;28.80;99.90;;;;;;5008975;28;20410;-73
2023/06/12 09:53:16;;;;;;;9.07;4.20;;;28.80;99.90;;;;;;5010782;28;20471;-73
2023/06/12 09:55:46;;;;;;;10.83;4.57;;;28.80;99.90;;;;;;5004211;28;20415;-73
2023/06/12 09:58:20;;;;;;;13.75;4.85;;;28.80;99.90;;;;;;5039783;28;20863;-73
2023/06/12 10:00:47;;;;;;;12.00;4.50;;;28.70;99.90;;;;;;5036970;28;20573;-73
2023/06/12 10:03:17;;;;;;;12.02;4.43;;;28.60;99.90;;;;;;5042080;28;20407;-73
2023/06/12 10:05:50;;;;;;;9.93;4.60;;;28.30;99.90;;;;;;5051136;28;20888;-73
2023/06/12 10:08:18;;;;;;;11.25;4.40;;;28.40;99.90;;;;;;5008274;28;20427;-73
2023/06/12 10:10:46;;;;;;;13.52;5.15;;;28.40;99.90;;;;;;5010763;28;21286;-73
2023/06/12 10:13:14;;;;;;;12.90;4.82;;;28.40;99.90;;;;;;5011320;28;20434;-73
2023/06/12 10:15:41;;;;;;;11.30;4.90;;;28.20;99.90;;;;;;5007889;28;20547;-73
2023/06/12 10:18:09;;;;;;;9.27;4.45;;;28.20;99.90;;;;;;5006437;28;20522;-73
2023/06/12 10:20:37;;;;;;;10.47;4.27;;;28.30;99.90;;;;;;5014907;28;20421;-73
2023/06/12 10:23:05;;;;;;;11.27;4.50;;;28.40;99.90;;;;;;5007621;28;20453;-73
2023/06/12 10:25:32;;;;;;;8.18;4.20;;;28.50;99.90;;;;;;5009593;28;20466;-73
2023/06/12 10:28:00;;;;;;;8.73;4.25;;;28.40;99.90;;;;;;5007762;28;21120;-73
2023/06/12 10:30:26;;;;;;;9.93;4.50;;;28.20;99.90;;;;;;5014446;28;20430;-73
2023/06/12 10:32:53;;;;;;;8.80;4.40;;;28.40;99.90;;;;;;5011867;28;20765;-73
2023/06/12 10:35:32;;;;;;;10.63;4.63;;;28.40;99.90;;;;;;5009757;28;20451;-73
2023/06/12 10:37:59;;;;;;;14.15;4.68;;;28.30;99.90;;;;;;5003303;28;20455;-73
2023/06/12 10:40:30;;;;;;;9.10;4.22;;;28.20;99.90;;;;;;5038012;28;20409;-73
2023/06/12 10:43:05;;;;;;;11.45;4.40;;;28.30;99.90;;;;;;5007374;28;20430;-73
2023/06/12 10:45:34;;;;;;;10.07;4.63;;;28.20;99.90;;;;;;5014067;28;20418;-73
2023/06/12 10:48:06;;;;;;;9.57;4.13;;;28.10;99.90;;;;;;5009994;28;20573;-73
2023/06/12 10:50:37;;;;;;;10.48;4.60;;;28.10;99.90;;;;;;5046994;28;21020;-73
2023/06/12 10:53:26;;;;;;;11.68;4.70;;;28.00;99.90;;;;;;5008278;28;20953;-73
2023/06/12 10:56:07;;;;;;;9.35;4.53;;;28.00;99.90;;;;;;5041874;28;20411;-73
2023/06/12 10:58:41;;;;;;;12.98;4.85;;;27.90;99.90;;;;;;5043980;28;20533;-73
2023/06/12 11:01:10;;;;;;;13.88;4.43;;;27.90;99.90;;;;;;5016503;28;20411;-73
2023/06/12 11:03:44;;;;;;;11.40;4.80;;;27.80;99.90;;;;;;5007685;28;20512;-73
2023/06/12 11:06:15;;;;;;;10.50;4.53;;;27.60;99.90;;;;;;5044668;28;20423;-73
2023/06/12 11:08:43;;;;;;;10.05;4.43;;;27.60;99.90;;;;;;5009890;28;20480;-73
2023/06/12 11:11:12;;;;;;;12.70;4.60;;;27.50;99.90;;;;;;5015379;28;20431;-73
2023/06/12 11:13:45;;;;;;;10.10;4.40;;;27.50;99.90;;;;;;5014604;28;21072;-73
2023/06/12 11:16:24;;;;;;;14.57;4.50;;;27.50;99.90;;;;;;4997209;28;20485;-73
2023/06/12 11:19:10;;;;;;;11.40;4.63;;;27.40;99.90;;;;;;5044972;28;20417;-73
2023/06/12 11:21:40;;;;;;;9.45;4.18;;;27.40;99.90;;;;;;5060445;28;21068;-73
2023/06/12 11:24:09;;;;;;;9.52;4.38;;;27.40;99.90;;;;;;5043184;28;20542;-73
2023/06/12 11:26:35;;;;;;;11.18;4.60;;;27.30;99.90;;;;;;5014200;28;20511;-73
2023/06/12 11:29:16;;;;;;;11.70;4.57;;;27.30;99.90;;;;;;5013216;28;20445;-73
2023/06/12 11:31:51;;;;;;;11.30;4.07;;;27.30;99.90;;;;;;5002603;28;20904;-73
2023/06/12 11:34:17;;;;;;;9.63;4.25;;;27.20;99.90;;;;;;5012339;28;20519;-73
2023/06/12 11:36:44;;;;;;;11.15;4.50;;;27.20;99.90;;;;;;5003106;28;20441;-73
2023/06/12 11:39:18;;;;;;;11.15;4.70;;;27.20;99.90;;;;;;5036290;28;20520;-73
2023/06/12 11:41:49;;;;;;;13.05;4.57;;;27.20;99.90;;;;;;5049650;28;21157;-73
2023/06/12 11:44:16;;;;;;;15.07;4.63;;;27.20;99.90;;;;;;5010206;28;20536;-73
2023/06/12 11:46:43;;;;;;;13.77;4.67;;;27.10;99.90;;;;;;5022995;28;20419;-73
2023/06/12 11:49:11;;;;;;;10.85;4.78;;;26.90;99.90;;;;;;5018887;28;20421;-73
2023/06/12 11:51:39;;;;;;;10.68;4.22;;;26.90;99.90;;;;;;4998127;28;20412;-73
2023/06/12 11:54:09;;;;;;;9.63;4.43;;;26.70;99.90;;;;;;5038165;28;20419;-73
2023/06/12 11:56:41;;;;;;;12.30;4.40;;;26.80;99.90;;;;;;5014484;28;20409;-73
2023/06/12 11:59:08;;;;;;;11.18;4.63;;;26.80;99.90;;;;;;5026236;28;20423;-73
2023/06/12 12:01:38;;;;;;;12.63;4.72;;;26.70;99.90;;;;;;5008324;28;20932;-73
2023/06/12 12:04:06;;;;;;;10.55;4.50;;;26.80;99.90;;;;;;5008527;28;20417;-73
2023/06/12 12:06:50;;;;;;;13.25;4.95;;;26.70;99.90;;;;;;4989725;28;20411;-73
2023/06/12 12:09:27;;;;;;;11.48;4.63;;;26.70;99.90;;;;;;5040113;28;20420;-73
2023/06/12 12:11:54;;;;;;;9.35;4.50;;;26.70;99.90;;;;;;5042117;28;20510;-72
2023/06/12 12:14:23;;;;;;;12.20;4.45;;;26.70;99.90;;;;;;5010793;28;20789;-73
2023/06/12 12:16:50;;;;;;;12.60;4.17;;;26.60;99.90;;;;;;5022373;28;20452;-73
2023/06/12 12:19:27;;;;;;;13.27;4.63;;;26.50;99.90;;;;;;5013688;28;20427;-73
2023/06/12 12:21:56;;;;;;;14.50;4.95;;;26.30;99.90;;;;;;5011156;28;20828;-73
2023/06/12 12:24:23;;;;;;;12.40;4.55;;;26.30;99.90;;;;;;5006764;28;20419;-73
2023/06/12 12:26:53;;;;;;;11.10;4.80;;;26.20;99.90;;;;;;5040103;28;20415;-73
2023/06/12 12:29:21;;;;;;;10.00;4.75;;;26.00;99.90;;;;;;5008217;28;20432;-73
2023/06/12 12:31:48;;;;;;;11.60;4.50;;;26.00;99.90;;;;;;5008270;28;20414;-73
2023/06/12 12:34:15;;;;;;;10.13;4.60;;;26.00;99.90;;;;;;5023020;28;20462;-73
2023/06/12 12:36:42;;;;;;;9.65;4.32;;;26.00;99.90;;;;;;5011271;28;20411;-73
2023/06/12 12:39:09;;;;;;;11.75;4.60;;;25.90;99.90;;;;;;5012964;28;20419;-73
2023/06/12 12:41:36;;;;;;;11.27;4.53;;;26.00;99.90;;;;;;5014679;28;20772;-73
2023/06/12 12:44:03;;;;;;;12.18;4.75;;;26.00;99.90;;;;;;5021490;28;20405;-73
2023/06/12 12:46:30;;;;;;;12.23;4.65;;;26.10;99.90;;;;;;5006774;28;20413;-73